Hlavní strana
METAR-TAF:

METAR-TAF

Letiště :

Parsons, Tennessee, Spojené státy americké

zeměpisná šířka: 35-39-23N, zeměpisná délka: 088-11-43W, výška: 149 m

Aktuální stav počasí

Zpráva byla vytvořena před 21 minutami, v 08:15 UTC
Severní vítr 5 kt
Teplota -5°C
Vlhkost vzduchu 73%
Tlak 1036 hPa
Viditelnost: 16.1 km
Zataženo ve výšce 2200 ft

METAR: KPVE 210815Z AUTO 36005KT 10SM OVC022 M05/M09 A3059 RMK A01

Čas: 02:36 (08:36 UTC)


TAF: chybějící

Stav a předpovědi počasí z více než 4 000 letišť (zprávy METAR a TAF).

Červené a žluté tečky na mapě představují dostupné meteorologické stanice.

Když kurzor umístíte na tečku, zobrazí se název stanice.

Pak kliknutím zobrazíte stav a předpověď počasí.

Chcete-li změnit mapu, kliknutím na zelené tlačítko se znaménkem +mapu přiblížíte, kliknutím na zelené tlačítko se znaménkem – mapu oddálíte a kliknutím na zelené šipky přejdete na sousední mapy.


METAR-TAF: